WetterOnline ( http://www.wetteronline.de )

Wetter aktuell Rheinstetten

Aktuelles Wetter: Rheinstetten (116m)

6-stündlich | Neueste Meldungen
Ortszeit Temperatur Wetter
Sa, 26.05. 14:00 27.0° C wolkenlos
Sa, 26.05. 8:00 18.5° C wolkig
Sa, 26.05. 2:00 15.2° C wolkig
Fr, 25.05. 20:00 23.8° C wolkig
Fr, 25.05. 14:00 24.1° C wolkenlos
Fr, 25.05. 8:00 16.6° C wolkenlos
Fr, 25.05. 2:00 12.8° C wolkig
Do, 24.05. 20:00 20.1° C leicht bewölkt
Ortszeit Temperatur Wetter
Sa, 26.05. 17:10 26.7° C leicht bewölkt
Sa, 26.05. 17:00 27.1° C leicht bewölkt
Sa, 26.05. 16:50 27.1° C leicht bewölkt
Sa, 26.05. 16:40 27.5° C leicht bewölkt
Sa, 26.05. 16:30 27.7° C leicht bewölkt
Sa, 26.05. 16:20 27.7° C leicht bewölkt
Sa, 26.05. 16:00 27.8° C wolkenlos
Sa, 26.05. 15:30 27.8° C wolkenlos
Sa, 26.05. 15:00 27.8° C wolkenlos
Sa, 26.05. 14:30 27.5° C wolkenlos
Sa, 26.05. 14:00 27.0° C wolkenlos
Ortszeit Relative Feuchte Sichtweite
Sa, 26.05. 14:00 52% 14 km
Sa, 26.05. 8:00 78% 14 km
Sa, 26.05. 2:00 92% 10 km
Fr, 25.05. 20:00 59% 24 km
Fr, 25.05. 14:00 53% 9 km
Fr, 25.05. 8:00 84% 12 km
Fr, 25.05. 2:00 99% 4.7 km
Do, 24.05. 20:00 82% 16 km
Ortszeit Relative Feuchte Sichtweite
Sa, 26.05. 17:10 51% -
Sa, 26.05. 17:00 49% 30 km
Sa, 26.05. 16:50 49% -
Sa, 26.05. 16:40 46% -
Sa, 26.05. 16:30 47% 19 km
Sa, 26.05. 16:20 47% -
Sa, 26.05. 16:00 44% 18 km
Sa, 26.05. 15:30 46% 17 km
Sa, 26.05. 15:00 48% 19 km
Sa, 26.05. 14:30 49% 18 km
Sa, 26.05. 14:00 52% 14 km
Ortszeit Niederschlagsmenge Niederschlagsart
Sa, 26.05. 14:00 0.0 l/m2 in 6 Std. -
Sa, 26.05. 8:00 0.0 l/m2 in 12 Std. -
Sa, 26.05. 2:00 0.0 l/m2 in 6 Std. -
Fr, 25.05. 20:00 0.0 l/m2 in 12 Std. -
Fr, 25.05. 14:00 0.0 l/m2 in 6 Std. -
Fr, 25.05. 8:00 0.1 l/m2 in 12 Std. -
Fr, 25.05. 2:00 0.1 l/m2 in 6 Std. Regen
Do, 24.05. 20:00 2 l/m2 in 12 Std. Regen
Ortszeit Niederschlagsmenge Niederschlagsart
Sa, 26.05. 17:10 keine Meldung -
Sa, 26.05. 17:00 0.0 l/m2 in 1 Std. -
Sa, 26.05. 16:50 keine Meldung -
Sa, 26.05. 16:40 keine Meldung -
Sa, 26.05. 16:30 0.0 l/m2 in 1 Std. -
Sa, 26.05. 16:20 keine Meldung -
Sa, 26.05. 16:00 0.0 l/m2 in 1 Std. -
Sa, 26.05. 15:30 0.0 l/m2 in 1 Std. -
Sa, 26.05. 15:00 0.0 l/m2 in 1 Std. -
Sa, 26.05. 14:30 0.0 l/m2 in 1 Std. -
Sa, 26.05. 14:00 0.0 l/m2 in 1 Std. -
Ortszeit Stärke Spitze Richtung
km/h Bft. km/h Grad Sektor
Sa, 26.05. 14:00 11 2 29 60° NO
Sa, 26.05. 8:00 13 3 20 40° NO
Sa, 26.05. 2:00 7 2 17 60° NO
Fr, 25.05. 20:00 9 2 22 70° O
Fr, 25.05. 14:00 7 2 17 330° NW
Fr, 25.05. 8:00 2 1 6 170° S
Fr, 25.05. 2:00 4 1 14 210° SW
Do, 24.05. 20:00 4 1 14 240° SW
Ortszeit Stärke Spitze Richtung
km/h Bft. km/h Grad Sektor
Sa, 26.05. 17:10 13 3 - 60° NO
Sa, 26.05. 17:00 11 2 22 50° NO
Sa, 26.05. 16:50 11 2 - 50° NO
Sa, 26.05. 16:40 11 2 - 20° N
Sa, 26.05. 16:30 11 2 22 60° NO
Sa, 26.05. 16:20 11 2 - 60° NO
Sa, 26.05. 16:00 13 3 24 30° NO
Sa, 26.05. 15:30 11 2 22 50° NO
Sa, 26.05. 15:00 11 2 25 50° NO
Sa, 26.05. 14:30 13 3 22 50° NO
Sa, 26.05. 14:00 11 2 25 60° NO
Ortszeit Untergrenze Bedeckung Gattung
total tief tief mittel hoch
Sa, 26.05. 14:00 - 0/8 0/8 - - -
Sa, 26.05. 8:00 7500 m 8/8 0/8 - - -
Sa, 26.05. 2:00 9000 m 8/8 0/8 - - -
Fr, 25.05. 20:00 1500 m 8/8 2/8 - - -
Fr, 25.05. 14:00 10500 m 0/8 0/8 - - -
Fr, 25.05. 8:00 - 0/8 0/8 - - -
Fr, 25.05. 2:00 3000 m 6/8 6/8 - - -
Do, 24.05. 20:00 5100 m 4/8 2/8 - - -
Ortszeit Bedeckungsgrad in Achtel und Wolkenuntergrenze
Sa, 26.05. 17:10 5(9000m)
Sa, 26.05. 17:00 1(3600m) 4(9000m) 5(10500m)
Sa, 26.05. 16:50 1(3600m) 2(10500m)
Sa, 26.05. 16:40 1(3000m) 3(9000m) 5(10500m)
Sa, 26.05. 16:30 3(9000m)
Sa, 26.05. 16:20 3(9000m)
Sa, 26.05. 16:00 keine Wolken
Sa, 26.05. 15:30 keine Wolken
Sa, 26.05. 15:00 keine Wolken
Sa, 26.05. 14:30 keine Wolken
Sa, 26.05. 14:00 keine Wolken
Ortszeit Luftdruck NN (hPa) Tendenz (hPa in 3 Std.)
Sa, 26.05. 14:00 1019 + 0,1
Sa, 26.05. 8:00 1019 + 1,0
Sa, 26.05. 2:00 1018 + 0,2
Fr, 25.05. 20:00 1017 - 0,2
Fr, 25.05. 14:00 1018 - 0,7
Fr, 25.05. 8:00 1018 + 0,8
Fr, 25.05. 2:00 1018 + 0,1
Do, 24.05. 20:00 1016 0,0
Ortszeit Luftdruck NN (hPa) Tendenz (hPa in 3 Std.)
Sa, 26.05. 17:10 1018 keine Meldung
Sa, 26.05. 17:00 1018 - 0,4
Sa, 26.05. 16:50 1018 keine Meldung
Sa, 26.05. 16:40 1018 keine Meldung
Sa, 26.05. 16:30 1018 - 0,5
Sa, 26.05. 16:20 1018 keine Meldung
Sa, 26.05. 16:00 1018 - 0,4
Sa, 26.05. 15:30 1018 - 0,4
Sa, 26.05. 15:00 1018 - 0,3
Sa, 26.05. 14:30 1018 - 0,1
Sa, 26.05. 14:00 1019 + 0,1
Ortszeit Schneehöhe (cm)
Sa, 26.05. 14:00 -
Sa, 26.05. 8:00 -
Sa, 26.05. 2:00 -
Fr, 25.05. 20:00 -
Fr, 25.05. 14:00 -
Fr, 25.05. 8:00 -
Fr, 25.05. 2:00 -
Do, 24.05. 20:00 -
Ortszeit Schneehöhe (cm)
Sa, 26.05. 17:10 -
Sa, 26.05. 17:00 -
Sa, 26.05. 16:50 -
Sa, 26.05. 16:40 -
Sa, 26.05. 16:30 -
Sa, 26.05. 16:20 -
Sa, 26.05. 16:00 -
Sa, 26.05. 15:30 -
Sa, 26.05. 15:00 -
Sa, 26.05. 14:30 -
Sa, 26.05. 14:00 -
Link zu dieser Seite / Seite empfehlen

Das Wetter in ...